createdAt,value
2022-09-12T00:02:04.274Z,4.82
2022-09-12T00:05:07.432Z,4.57
2022-09-12T00:08:09.093Z,4.55
2022-09-12T00:11:12.035Z,4.57
2022-09-12T00:14:16.675Z,5.10
2022-09-12T00:17:18.227Z,4.55
2022-09-12T00:20:19.924Z,4.35
2022-09-12T00:23:21.784Z,4.35
2022-09-12T00:26:23.390Z,4.60
2022-09-12T00:29:24.986Z,4.60
2022-09-12T00:32:26.649Z,4.70
2022-09-12T00:35:28.242Z,4.47
2022-09-12T00:38:29.858Z,5.10
2022-09-12T00:41:34.319Z,4.72
2022-09-12T00:44:35.807Z,4.20
2022-09-12T00:47:37.950Z,4.68
2022-09-12T00:50:39.507Z,4.38
2022-09-12T00:53:43.710Z,4.68
2022-09-12T00:56:51.811Z,4.60
2022-09-12T00:59:58.502Z,4.32
2022-09-12T01:06:15.552Z,5.07
2022-09-12T01:09:21.359Z,4.63
2022-09-12T01:12:22.957Z,4.43
2022-09-12T01:15:24.715Z,5.15
2022-09-12T01:18:51.825Z,4.40
2022-09-12T01:22:15.946Z,4.50
2022-09-12T01:26:22.382Z,4.93
2022-09-12T01:29:45.576Z,4.60
2022-09-12T01:33:22.713Z,4.75
2022-09-12T01:36:34.496Z,4.90
2022-09-12T01:39:40.590Z,4.13
2022-09-12T01:43:09.807Z,4.88
2022-09-12T01:46:21.672Z,4.93
2022-09-12T01:49:29.522Z,4.80
2022-09-12T01:52:37.702Z,4.50
2022-09-12T01:55:49.870Z,4.80
2022-09-12T01:58:57.887Z,4.72
2022-09-12T02:02:07.272Z,4.45
2022-09-12T02:05:17.670Z,4.93
2022-09-12T02:08:33.177Z,4.68
2022-09-12T02:11:40.205Z,4.55
2022-09-12T02:14:50.333Z,4.90
2022-09-12T02:17:55.166Z,5.15
2022-09-12T02:20:57.456Z,4.60
2022-09-12T02:24:02.850Z,4.75
2022-09-12T02:27:27.991Z,4.40
2022-09-12T02:30:39.718Z,4.85
2022-09-12T02:33:58.001Z,4.50
2022-09-12T02:36:59.501Z,5.00
2022-09-12T02:40:01.856Z,4.70
2022-09-12T02:43:05.557Z,4.32
2022-09-12T02:46:13.776Z,4.60
2022-09-12T02:49:17.179Z,4.40
2022-09-12T02:52:19.778Z,4.55
2022-09-12T02:55:21.637Z,5.15
2022-09-12T02:58:27.472Z,4.20
2022-09-12T03:01:35.106Z,4.40
2022-09-12T03:05:24.933Z,4.38
2022-09-12T03:09:00.305Z,4.53
2022-09-12T03:12:19.050Z,4.55
2022-09-12T03:15:51.681Z,4.40
2022-09-12T03:19:19.894Z,4.65
2022-09-12T03:23:00.156Z,4.60
2022-09-12T03:26:17.044Z,4.60
2022-09-12T03:29:19.341Z,5.30
2022-09-12T03:32:20.862Z,4.97
2022-09-12T03:35:24.557Z,5.70
2022-09-12T03:38:26.423Z,6.55
2022-09-12T03:41:27.947Z,7.28
2022-09-12T03:44:29.484Z,7.05
2022-09-12T03:47:31.323Z,7.30
2022-09-12T03:50:33.815Z,7.07
2022-09-12T03:53:35.716Z,6.63
2022-09-12T03:56:37.755Z,6.95
2022-09-12T03:59:39.331Z,7.35
2022-09-12T04:02:40.868Z,7.70
2022-09-12T04:05:42.450Z,7.20
2022-09-12T04:08:47.760Z,7.20
2022-09-12T04:11:49.343Z,7.55
2022-09-12T04:14:50.925Z,7.38
2022-09-12T04:17:52.442Z,7.70
2022-09-12T04:20:54.305Z,7.85
2022-09-12T04:23:55.829Z,8.50
2022-09-12T04:26:57.423Z,7.97
2022-09-12T04:30:01.172Z,7.97
2022-09-12T04:33:07.464Z,8.38
2022-09-12T04:36:14.291Z,8.18
2022-09-12T04:39:17.142Z,9.32
2022-09-12T04:42:18.787Z,9.38
2022-09-12T04:45:20.283Z,8.25
2022-09-12T04:48:21.839Z,8.40
2022-09-12T04:51:29.715Z,8.10
2022-09-12T04:54:31.385Z,8.73
2022-09-12T04:57:33.210Z,8.23
2022-09-12T05:00:35.123Z,8.13
2022-09-12T05:03:39.043Z,8.52
2022-09-12T05:06:42.552Z,8.13
2022-09-12T05:09:44.077Z,8.18
2022-09-12T05:12:45.636Z,8.23
2022-09-12T05:15:58.502Z,7.28
2022-09-12T05:19:00.475Z,7.43
2022-09-12T05:22:02.517Z,7.40
2022-09-12T05:25:05.706Z,7.63
2022-09-12T05:28:07.336Z,6.82
2022-09-12T05:31:13.074Z,7.90
2022-09-12T05:34:15.361Z,7.40
2022-09-12T05:37:17.252Z,6.93
2022-09-12T05:40:19.331Z,7.20
2022-09-12T05:43:20.899Z,7.78
2022-09-12T05:46:25.748Z,7.43
2022-09-12T05:49:27.520Z,9.13
2022-09-12T05:52:29.208Z,9.18
2022-09-12T05:55:31.801Z,9.00
2022-09-12T05:58:35.225Z,8.30
2022-09-12T06:01:36.871Z,8.13
2022-09-12T06:04:40.904Z,8.85
2022-09-12T06:07:42.411Z,7.70
2022-09-12T06:10:44.004Z,7.55
2022-09-12T06:13:45.616Z,8.32
2022-09-12T06:16:48.575Z,7.82
2022-09-12T06:19:51.067Z,9.27
2022-09-12T06:22:55.710Z,8.20
2022-09-12T06:25:57.310Z,8.25
2022-09-12T06:29:00.873Z,9.50
2022-09-12T06:32:02.573Z,8.45
2022-09-12T06:35:05.490Z,9.63
2022-09-12T06:38:07.024Z,9.70
2022-09-12T06:41:13.943Z,9.27
2022-09-12T06:44:22.449Z,9.55
2022-09-12T06:47:24.018Z,8.55
2022-09-12T06:50:25.531Z,7.97
2022-09-12T06:53:28.622Z,8.23
2022-09-12T06:56:30.249Z,8.07
2022-09-12T06:59:31.973Z,9.40
2022-09-12T07:02:33.528Z,8.85
2022-09-12T07:05:35.057Z,9.05
2022-09-12T07:08:37.841Z,8.23
2022-09-12T07:11:40.933Z,8.05
2022-09-12T07:14:42.532Z,8.10
2022-09-12T07:17:44.468Z,7.55
2022-09-12T07:20:46.046Z,8.02
2022-09-12T07:23:47.988Z,7.65
2022-09-12T07:26:49.776Z,6.78
2022-09-12T07:29:51.394Z,7.10
2022-09-12T07:32:55.957Z,6.95
2022-09-12T07:36:01.903Z,6.25
2022-09-12T07:39:03.506Z,6.70
2022-09-12T07:42:05.462Z,7.07
2022-09-12T07:45:07.858Z,6.25
2022-09-12T07:48:10.339Z,6.65
2022-09-12T07:51:12.314Z,6.65
2022-09-12T07:54:13.975Z,6.18
2022-09-12T07:57:15.974Z,6.70
2022-09-12T08:00:18.750Z,6.65
2022-09-12T08:03:20.775Z,5.68
2022-09-12T08:06:24.297Z,6.30
2022-09-12T08:09:26.001Z,6.63
2022-09-12T08:12:28.918Z,5.60
2022-09-12T08:15:31.430Z,6.68
2022-09-12T08:18:34.464Z,6.15
2022-09-12T08:21:36.144Z,6.03
2022-09-12T08:24:39.393Z,6.15
2022-09-12T08:27:42.949Z,6.13
2022-09-12T08:30:44.556Z,5.97
2022-09-12T08:33:46.434Z,6.50
2022-09-12T08:36:48.278Z,5.70
2022-09-12T08:39:49.942Z,6.15
2022-09-12T08:43:06.789Z,6.30
2022-09-12T08:46:15.794Z,4.88
2022-09-12T08:49:27.628Z,5.00
2022-09-12T08:52:51.906Z,5.38
2022-09-12T08:55:58.774Z,5.35
2022-09-12T08:59:00.350Z,4.72
2022-09-12T09:02:04.488Z,3.70
2022-09-12T09:05:24.766Z,3.97
2022-09-12T09:08:31.397Z,3.55
2022-09-12T09:11:47.887Z,4.00
2022-09-12T09:15:12.002Z,3.90
2022-09-12T09:18:23.336Z,3.80
2022-09-12T09:21:53.002Z,2.97
2022-09-12T09:25:01.536Z,3.40
2022-09-12T09:28:15.652Z,3.40
2022-09-12T09:31:19.984Z,3.30
2022-09-12T09:34:24.639Z,3.35
2022-09-12T09:37:26.163Z,3.80
2022-09-12T09:40:39.324Z,3.17
2022-09-12T09:43:40.963Z,3.50
2022-09-12T09:46:42.639Z,3.20
2022-09-12T09:49:44.435Z,3.47
2022-09-12T09:52:47.532Z,3.15
2022-09-12T09:55:49.905Z,3.80
2022-09-12T09:58:51.483Z,3.20
2022-09-12T10:01:55.868Z,3.08
2022-09-12T10:04:58.827Z,3.20
2022-09-12T10:08:00.680Z,3.38
2022-09-12T10:11:16.035Z,3.10
2022-09-12T10:14:30.064Z,3.50
2022-09-12T10:17:42.691Z,3.17
2022-09-12T10:20:45.559Z,3.40
2022-09-12T10:23:50.727Z,3.33
2022-09-12T10:26:58.543Z,2.92
2022-09-12T10:30:05.915Z,2.80
2022-09-12T10:33:12.177Z,3.20
2022-09-12T10:36:15.600Z,2.80
2022-09-12T10:39:19.585Z,2.90
2022-09-12T10:42:43.058Z,2.88
2022-09-12T10:45:44.708Z,3.03
2022-09-12T10:48:48.034Z,2.83
2022-09-12T10:51:50.811Z,2.60
2022-09-12T10:54:52.728Z,2.75
2022-09-12T10:58:23.138Z,2.40
2022-09-12T11:01:36.931Z,2.70
2022-09-12T11:05:11.251Z,2.40
2022-09-12T11:08:15.970Z,2.70
2022-09-12T11:11:29.903Z,2.50
2022-09-12T11:14:43.669Z,2.80
2022-09-12T11:18:00.557Z,2.58
2022-09-12T11:21:14.524Z,2.60
2022-09-12T11:24:24.102Z,2.70
2022-09-12T11:27:58.102Z,2.42
2022-09-12T11:31:02.785Z,2.50
2022-09-12T11:34:09.600Z,2.25
2022-09-12T11:37:43.772Z,2.28
2022-09-12T11:41:07.319Z,2.42
2022-09-12T11:44:14.310Z,2.20
2022-09-12T11:47:16.112Z,2.38
2022-09-12T11:50:28.724Z,2.05
2022-09-12T11:53:38.614Z,2.20
2022-09-12T11:56:47.793Z,2.30
2022-09-12T11:59:54.625Z,2.00
2022-09-12T12:03:21.019Z,2.20
2022-09-12T12:06:30.563Z,2.20
2022-09-12T12:09:33.200Z,2.17
2022-09-12T12:12:35.660Z,1.95
2022-09-12T12:15:39.335Z,2.13
2022-09-12T12:18:43.221Z,2.20
2022-09-12T12:21:47.516Z,2.10
2022-09-12T12:25:12.340Z,1.80
2022-09-12T12:28:42.655Z,1.95
2022-09-12T12:31:59.502Z,2.10
2022-09-12T12:35:02.706Z,1.88
2022-09-12T12:38:25.789Z,2.35
2022-09-12T12:41:36.460Z,2.10
2022-09-12T12:44:44.123Z,2.10
2022-09-12T12:47:49.561Z,2.20
2022-09-12T12:50:52.343Z,2.30
2022-09-12T12:53:54.331Z,2.42
2022-09-12T12:57:18.112Z,2.20
2022-09-12T13:00:29.896Z,2.10
2022-09-12T13:03:34.135Z,2.10
2022-09-12T13:06:40.999Z,2.40
2022-09-12T13:09:52.866Z,2.20
2022-09-12T13:12:57.668Z,2.40
2022-09-12T13:15:59.361Z,2.50
2022-09-12T13:19:06.862Z,2.30
2022-09-12T13:22:10.181Z,2.10
2022-09-12T13:25:20.464Z,2.30
2022-09-12T13:28:22.804Z,2.28
2022-09-12T13:31:28.518Z,1.98
2022-09-12T13:34:31.250Z,1.90
2022-09-12T13:37:57.775Z,2.10
2022-09-12T13:41:23.868Z,1.90
2022-09-12T13:44:26.950Z,2.47
2022-09-12T13:47:36.824Z,2.30
2022-09-12T13:51:05.764Z,2.40
2022-09-12T13:54:07.388Z,2.10
2022-09-12T13:57:29.325Z,2.22
2022-09-12T14:00:34.921Z,2.30
2022-09-12T14:03:59.823Z,2.20
2022-09-12T14:07:13.581Z,2.10
2022-09-12T14:10:21.944Z,2.42
2022-09-12T14:13:26.384Z,2.25
2022-09-12T14:16:29.074Z,2.20
2022-09-12T14:19:32.800Z,2.00
2022-09-12T14:22:36.381Z,1.90
2022-09-12T14:25:41.360Z,1.70
2022-09-12T14:28:47.378Z,1.95
2022-09-12T14:32:02.124Z,1.63
2022-09-12T14:35:05.530Z,2.00
2022-09-12T14:38:17.722Z,1.60
2022-09-12T14:41:29.504Z,2.00
2022-09-12T14:44:32.982Z,1.77
2022-09-12T14:47:44.424Z,2.10
2022-09-12T14:50:50.453Z,1.63
2022-09-12T14:53:52.116Z,2.03
2022-09-12T14:56:59.543Z,1.90
2022-09-12T15:00:13.427Z,1.80
2022-09-12T15:03:43.068Z,2.00
2022-09-12T15:06:47.701Z,1.70
2022-09-12T15:09:49.692Z,1.73
2022-09-12T15:13:09.222Z,1.73
2022-09-12T15:16:12.110Z,1.90
2022-09-12T15:19:14.048Z,1.98
2022-09-12T15:22:15.869Z,2.22
2022-09-12T15:25:20.778Z,2.05
2022-09-12T15:28:24.135Z,1.83
2022-09-12T15:31:31.473Z,1.80
2022-09-12T15:34:33.556Z,1.88
2022-09-12T15:37:35.206Z,1.80
2022-09-12T15:40:36.871Z,2.00
2022-09-12T15:43:38.569Z,1.70
2022-09-12T15:46:40.975Z,1.80
2022-09-12T15:49:42.742Z,1.80
2022-09-12T15:52:44.424Z,1.63
2022-09-12T15:55:46.020Z,1.90
2022-09-12T15:58:58.158Z,1.83
2022-09-12T16:02:00.704Z,1.90
2022-09-12T16:05:02.378Z,1.83
2022-09-12T16:08:03.939Z,1.80
2022-09-12T16:11:11.966Z,1.77
2022-09-12T16:14:18.500Z,2.08
2022-09-12T16:17:20.075Z,1.90
2022-09-12T16:20:22.717Z,1.77
2022-09-12T16:23:27.675Z,1.95
2022-09-12T16:26:29.404Z,1.90
2022-09-12T16:29:31.182Z,2.13
2022-09-12T16:32:33.207Z,1.90
2022-09-12T16:35:34.788Z,1.80
2022-09-12T16:38:48.511Z,1.80
2022-09-12T16:41:50.203Z,2.00
2022-09-12T16:44:51.894Z,1.90
2022-09-12T16:47:53.457Z,1.88
2022-09-12T16:51:06.767Z,2.03
2022-09-12T16:54:08.369Z,2.03
2022-09-12T16:57:10.622Z,1.92
2022-09-12T17:00:12.579Z,2.00
2022-09-12T17:03:16.166Z,2.00
2022-09-12T17:06:18.510Z,2.00
2022-09-12T17:09:20.277Z,2.10
2022-09-12T17:12:21.970Z,2.03
2022-09-12T17:15:23.744Z,2.10
2022-09-12T17:18:25.807Z,1.92
2022-09-12T17:21:27.491Z,2.15
2022-09-12T17:24:29.132Z,2.22
2022-09-12T17:27:30.723Z,2.10
2022-09-12T17:30:36.200Z,2.20
2022-09-12T17:33:39.146Z,2.40
2022-09-12T17:36:44.150Z,2.60
2022-09-12T17:39:46.279Z,2.17
2022-09-12T17:42:47.930Z,2.30
2022-09-12T17:45:56.439Z,2.17
2022-09-12T17:48:58.704Z,2.25
2022-09-12T17:52:01.942Z,2.30
2022-09-12T17:55:03.749Z,2.50
2022-09-12T17:58:05.479Z,2.50
2022-09-12T18:01:30.920Z,2.47
2022-09-12T18:04:32.600Z,2.20
2022-09-12T18:07:38.983Z,2.28
2022-09-12T18:10:43.771Z,2.33
2022-09-12T18:13:45.498Z,2.20
2022-09-12T18:16:47.739Z,2.28
2022-09-12T18:19:53.803Z,2.28
2022-09-12T18:22:55.607Z,2.90
2022-09-12T18:26:01.482Z,3.42
2022-09-12T18:29:03.087Z,4.50
2022-09-12T18:32:04.730Z,4.57
2022-09-12T18:35:06.934Z,5.32
2022-09-12T18:38:08.518Z,5.63
2022-09-12T18:41:21.827Z,6.13
2022-09-12T18:44:23.423Z,6.20
2022-09-12T18:47:25.006Z,6.03
2022-09-12T18:50:26.578Z,5.57
2022-09-12T18:53:28.168Z,5.60
2022-09-12T18:56:35.151Z,5.85
2022-09-12T18:59:36.703Z,4.10
2022-09-12T19:02:38.357Z,3.30
2022-09-12T19:05:39.983Z,3.10
2022-09-12T19:08:41.576Z,3.00
2022-09-12T19:11:48.917Z,3.03
2022-09-12T19:14:50.609Z,3.20
2022-09-12T19:17:52.143Z,3.05
2022-09-12T19:20:53.859Z,4.15
2022-09-12T19:23:58.227Z,5.57
2022-09-12T19:26:59.810Z,6.80
2022-09-12T19:30:01.391Z,10.68
2022-09-12T19:33:03.090Z,10.10
2022-09-12T19:36:13.869Z,9.70
2022-09-12T19:39:23.951Z,9.80
2022-09-12T19:42:25.465Z,6.70
2022-09-12T19:45:27.484Z,5.07
2022-09-12T19:48:29.919Z,5.97
2022-09-12T19:51:31.489Z,5.57
2022-09-12T19:54:33.092Z,5.07
2022-09-12T19:57:34.731Z,4.78
2022-09-12T20:00:37.244Z,5.10
2022-09-12T20:03:39.323Z,3.83
2022-09-12T20:06:41.886Z,3.72
2022-09-12T20:09:43.464Z,4.30
2022-09-12T20:12:45.032Z,5.55
2022-09-12T20:15:46.710Z,6.07
2022-09-12T20:18:52.189Z,4.75
2022-09-12T20:21:53.769Z,4.20
2022-09-12T20:24:55.428Z,5.03
2022-09-12T20:28:00.194Z,5.32
2022-09-12T20:31:04.174Z,6.25
2022-09-12T20:34:06.314Z,5.63
2022-09-12T20:37:07.928Z,4.25
2022-09-12T20:40:10.526Z,3.33
2022-09-12T20:43:12.094Z,3.08
2022-09-12T20:46:13.724Z,2.92
2022-09-12T20:49:15.299Z,2.83
2022-09-12T20:52:16.910Z,2.67
2022-09-12T20:55:19.245Z,2.70
2022-09-12T20:58:23.661Z,2.67
2022-09-12T21:01:26.965Z,2.60
2022-09-12T21:04:28.634Z,2.70
2022-09-12T21:07:30.735Z,2.75
2022-09-12T21:10:32.642Z,2.80
2022-09-12T21:13:34.468Z,3.00
2022-09-12T21:16:38.571Z,2.88
2022-09-12T21:19:40.178Z,2.92
2022-09-12T21:22:41.750Z,3.30
2022-09-12T21:25:51.991Z,2.85
2022-09-12T21:28:54.243Z,2.85
2022-09-12T21:31:55.841Z,3.17
2022-09-12T21:34:57.465Z,3.20
2022-09-12T21:37:59.067Z,2.97
2022-09-12T21:41:08.131Z,3.00
2022-09-12T21:44:09.721Z,3.05
2022-09-12T21:47:12.397Z,2.75
2022-09-12T21:50:14.708Z,3.00
2022-09-12T21:53:16.365Z,2.83
2022-09-12T21:56:17.917Z,3.15
2022-09-12T21:59:19.575Z,3.10
2022-09-12T22:02:22.936Z,2.90
2022-09-12T22:05:27.187Z,2.90
2022-09-12T22:08:30.772Z,3.15
2022-09-12T22:11:32.353Z,3.28
2022-09-12T22:14:34.517Z,3.05
2022-09-12T22:17:36.169Z,3.60
2022-09-12T22:20:37.751Z,3.10
2022-09-12T22:23:58.588Z,3.20
2022-09-12T22:27:03.942Z,3.17
2022-09-12T22:30:07.853Z,3.10
2022-09-12T22:33:09.446Z,3.13
2022-09-12T22:36:12.452Z,2.80
2022-09-12T22:39:14.853Z,2.85
2022-09-12T22:42:16.427Z,3.13
2022-09-12T22:45:19.102Z,3.00
2022-09-12T22:48:20.667Z,3.05
2022-09-12T22:51:22.308Z,3.13
2022-09-12T22:54:23.880Z,3.25
2022-09-12T22:57:25.685Z,3.70
2022-09-12T23:00:30.157Z,3.40
2022-09-12T23:03:32.140Z,3.53
2022-09-12T23:06:33.742Z,3.40
2022-09-12T23:09:35.723Z,3.38
2022-09-12T23:12:37.486Z,3.30
2022-09-12T23:15:39.144Z,3.65
2022-09-12T23:18:40.813Z,3.17
2022-09-12T23:21:42.495Z,3.13
2022-09-12T23:24:44.116Z,3.33
2022-09-12T23:27:45.725Z,3.10
2022-09-12T23:30:54.622Z,3.22
2022-09-12T23:33:57.997Z,2.83
2022-09-12T23:37:00.144Z,3.17
2022-09-12T23:40:02.376Z,3.20
2022-09-12T23:43:05.102Z,2.80
2022-09-12T23:46:07.439Z,3.10
2022-09-12T23:49:09.238Z,3.20
2022-09-12T23:52:10.819Z,3.10
2022-09-12T23:55:12.400Z,3.40
2022-09-12T23:58:14.621Z,3.25
